עמוד ראשי
METAR-TAF:

METAR-TAF

שדות תעופה :

דוחה, קטאר

קו רוחב: 25-15-40N, קו אורך: 051-33-54E, גובה: 11מטר

תצפית מזג אוויר נוכחית

הדו"ח נערך לפני 50דקות, בשעה 04:30 UTC
רוח 1קשר עם כיוונים משתנים
טמפרטורת 41 צלסיוס
לחות 14%
לחץ 998 hPa
ראות 10 קילומטר או יותר
ללא עננים שבסיסם נמוך מ 5000 רגל או קומולונימבוס

METAR: OTBD 200430Z VRB01KT CAVOK 41/08 Q0998 NOSIG

זמן: 08:20 (05:20 UTC)

תחזית

הדו"ח נערך לפני 6 שעות ו 23דקות, בשעה 22:57 UTC
תחזית בתוקף מ 20 ב 00 UTC עד 21 ב 06 UTC
רוח 6קשר מכיוון מערב
ראות 10 קילומטר או יותר
ללא עננים שבסיסם נמוך מ 5000 רגל או קומולונימבוס
זמנית מ -
20 ב 00 UTC עד 20 ב 08 UTC
רוח 3קשר עם כיוונים משתנים
זמנית מ -
20 ב 04 UTC עד 20 ב 09 UTC
רוח 8קשר מכיוון צפון/צפון-מערב
זמנית מ -
20 ב 07 UTC עד 20 ב 09 UTC
רוח 8קשר מכיוון צפון/צפון-מזרח
יעשה מ
20 ב 07 UTC עד 20 ב 09 UTC
רוח 9קשר מכיוון מזרח

TAF: OTBD 192257Z 2000/2106 26006KT CAVOK TEMPO 2000/2008 VRB03KT TEMPO 2004/2009 33008KT TEMPO 2007/2009 03008KT BECMG 2007/2009 09009KT

תצפיות ותחזיות מזג אוויר לגבי יותר מ- 4,000 שדות תעופה ברחבי העולם. דוחות METAR ו- TAF.

התחנות הזמינות מסומנות בנקודות צהובות ואדומות על גבי המפה.

העבר את העכבר לנקודה הצבעונית על מנת לראות את שם התחנה.

לאחר מכן, לחץ כדי לראות את תוכן ואת תחזיות מזג האוויר.

כדי לשנות את המפה: לחץ על הכפתורים הירוקים עם הפלוס השחור כדי להתקרב; על הכפתור הירוק עם המקף כדי להתרחק; או בחיצים הירוקים למפות סמוכות.


METAR-TAF: